sensor_id;sensor_type;location;lat;lon;timestamp;temperature;humidity
16505;HTU21D;8365;51.030;4.696;2023-09-18T00:01:37;21.89;118.99
16505;HTU21D;8365;51.030;4.696;2023-09-18T00:04:09;21.94;118.99
16505;HTU21D;8365;51.030;4.696;2023-09-18T00:06:40;21.63;118.99
16505;HTU21D;8365;51.030;4.696;2023-09-18T00:09:10;21.45;118.99
16505;HTU21D;8365;51.030;4.696;2023-09-18T00:11:43;21.24;118.99
16505;HTU21D;8365;51.030;4.696;2023-09-18T00:14:14;21.11;118.99
16505;HTU21D;8365;51.030;4.696;2023-09-18T00:16:46;20.94;118.99
16505;HTU21D;8365;51.030;4.696;2023-09-18T00:19:17;20.83;118.99
16505;HTU21D;8365;51.030;4.696;2023-09-18T00:21:48;20.72;118.99
16505;HTU21D;8365;51.030;4.696;2023-09-18T00:24:18;20.64;118.99
16505;HTU21D;8365;51.030;4.696;2023-09-18T00:26:48;20.59;118.99
16505;HTU21D;8365;51.030;4.696;2023-09-18T00:29:19;20.74;118.99
16505;HTU21D;8365;51.030;4.696;2023-09-18T00:31:50;20.95;118.99
16505;HTU21D;8365;51.030;4.696;2023-09-18T00:34:20;21.32;118.99
16505;HTU21D;8365;51.030;4.696;2023-09-18T00:36:53;21.44;118.99
16505;HTU21D;8365;51.030;4.696;2023-09-18T00:39:26;21.61;118.99
16505;HTU21D;8365;51.030;4.696;2023-09-18T00:41:56;21.73;118.99
16505;HTU21D;8365;51.030;4.696;2023-09-18T00:44:27;21.74;118.99
16505;HTU21D;8365;51.030;4.696;2023-09-18T00:46:57;21.87;118.99
16505;HTU21D;8365;51.030;4.696;2023-09-18T00:49:30;21.78;118.99
16505;HTU21D;8365;51.030;4.696;2023-09-18T00:52:02;21.69;118.99
16505;HTU21D;8365;51.030;4.696;2023-09-18T00:54:33;21.59;118.99
16505;HTU21D;8365;51.030;4.696;2023-09-18T00:57:08;21.72;118.99
16505;HTU21D;8365;51.030;4.696;2023-09-18T00:59:39;21.81;118.99
16505;HTU21D;8365;51.030;4.696;2023-09-18T01:02:10;21.66;118.99
16505;HTU21D;8365;51.030;4.696;2023-09-18T01:04:41;21.24;118.99
16505;HTU21D;8365;51.030;4.696;2023-09-18T01:07:14;21.33;118.99
16505;HTU21D;8365;51.030;4.696;2023-09-18T01:09:45;21.21;118.99
16505;HTU21D;8365;51.030;4.696;2023-09-18T01:12:30;21.34;118.99
16505;HTU21D;8365;51.030;4.696;2023-09-18T01:15:12;21.29;118.99
16505;HTU21D;8365;51.030;4.696;2023-09-18T01:17:45;21.03;118.99
16505;HTU21D;8365;51.030;4.696;2023-09-18T01:20:16;21.11;118.99
16505;HTU21D;8365;51.030;4.696;2023-09-18T01:22:47;21.07;118.99
16505;HTU21D;8365;51.030;4.696;2023-09-18T01:25:20;21.18;118.99
16505;HTU21D;8365;51.030;4.696;2023-09-18T01:27:50;21.22;118.99
16505;HTU21D;8365;51.030;4.696;2023-09-18T01:30:22;21.29;118.99
16505;HTU21D;8365;51.030;4.696;2023-09-18T01:32:57;21.29;118.99
16505;HTU21D;8365;51.030;4.696;2023-09-18T01:35:33;21.51;118.99
16505;HTU21D;8365;51.030;4.696;2023-09-18T01:38:04;21.58;118.99
16505;HTU21D;8365;51.030;4.696;2023-09-18T01:40:35;21.75;118.99
16505;HTU21D;8365;51.030;4.696;2023-09-18T01:43:05;21.95;118.99
16505;HTU21D;8365;51.030;4.696;2023-09-18T01:45:37;22.02;118.99
16505;HTU21D;8365;51.030;4.696;2023-09-18T01:48:07;21.96;118.99
16505;HTU21D;8365;51.030;4.696;2023-09-18T01:50:41;21.85;118.99
16505;HTU21D;8365;51.030;4.696;2023-09-18T01:53:12;22.01;118.99
16505;HTU21D;8365;51.030;4.696;2023-09-18T01:55:42;22.02;118.99
16505;HTU21D;8365;51.030;4.696;2023-09-18T01:58:13;22.09;118.99
16505;HTU21D;8365;51.030;4.696;2023-09-18T02:00:44;22.19;118.99
16505;HTU21D;8365;51.030;4.696;2023-09-18T02:03:18;22.04;118.99
16505;HTU21D;8365;51.030;4.696;2023-09-18T02:05:50;21.84;118.99
16505;HTU21D;8365;51.030;4.696;2023-09-18T02:08:21;22.17;118.99
16505;HTU21D;8365;51.030;4.696;2023-09-18T02:10:51;22.23;118.99
16505;HTU21D;8365;51.030;4.696;2023-09-18T02:13:22;22.24;118.99
16505;HTU21D;8365;51.030;4.696;2023-09-18T02:15:53;22.26;118.99
16505;HTU21D;8365;51.030;4.696;2023-09-18T02:18:24;22.10;118.99
16505;HTU21D;8365;51.030;4.696;2023-09-18T02:20:54;22.25;118.99
16505;HTU21D;8365;51.030;4.696;2023-09-18T02:23:24;22.13;118.99
16505;HTU21D;8365;51.030;4.696;2023-09-18T02:25:58;22.02;118.99
16505;HTU21D;8365;51.030;4.696;2023-09-18T02:28:29;22.01;118.99
16505;HTU21D;8365;51.030;4.696;2023-09-18T02:30:59;22.05;118.99
16505;HTU21D;8365;51.030;4.696;2023-09-18T02:33:30;22.16;118.99
16505;HTU21D;8365;51.030;4.696;2023-09-18T02:36:00;22.19;118.99
16505;HTU21D;8365;51.030;4.696;2023-09-18T02:38:33;22.19;118.99
16505;HTU21D;8365;51.030;4.696;2023-09-18T02:41:03;22.12;118.99
16505;HTU21D;8365;51.030;4.696;2023-09-18T02:43:34;22.18;118.99
16505;HTU21D;8365;51.030;4.696;2023-09-18T02:46:05;21.87;118.99
16505;HTU21D;8365;51.030;4.696;2023-09-18T02:48:36;21.79;118.99
16505;HTU21D;8365;51.030;4.696;2023-09-18T02:51:06;21.99;118.99
16505;HTU21D;8365;51.030;4.696;2023-09-18T02:53:37;21.96;118.99
16505;HTU21D;8365;51.030;4.696;2023-09-18T02:56:07;21.89;118.99
16505;HTU21D;8365;51.030;4.696;2023-09-18T02:58:40;21.47;118.99
16505;HTU21D;8365;51.030;4.696;2023-09-18T03:01:10;21.10;118.99
16505;HTU21D;8365;51.030;4.696;2023-09-18T03:03:41;21.04;118.99
16505;HTU21D;8365;51.030;4.696;2023-09-18T03:06:12;21.01;118.99
16505;HTU21D;8365;51.030;4.696;2023-09-18T03:08:43;20.96;118.99
16505;HTU21D;8365;51.030;4.696;2023-09-18T03:11:14;21.02;118.99
16505;HTU21D;8365;51.030;4.696;2023-09-18T03:13:46;20.90;118.99
16505;HTU21D;8365;51.030;4.696;2023-09-18T03:16:17;20.98;118.99
16505;HTU21D;8365;51.030;4.696;2023-09-18T03:18:47;20.91;118.99
16505;HTU21D;8365;51.030;4.696;2023-09-18T03:21:18;20.98;118.99
16505;HTU21D;8365;51.030;4.696;2023-09-18T03:23:49;20.83;118.99
16505;HTU21D;8365;51.030;4.696;2023-09-18T03:26:20;20.84;118.99
16505;HTU21D;8365;51.030;4.696;2023-09-18T03:28:55;20.68;118.99
16505;HTU21D;8365;51.030;4.696;2023-09-18T03:31:25;20.79;118.99
16505;HTU21D;8365;51.030;4.696;2023-09-18T03:33:56;20.64;118.99
16505;HTU21D;8365;51.030;4.696;2023-09-18T03:36:26;20.75;118.99
16505;HTU21D;8365;51.030;4.696;2023-09-18T03:38:57;20.66;118.99
16505;HTU21D;8365;51.030;4.696;2023-09-18T03:41:27;20.64;118.99
16505;HTU21D;8365;51.030;4.696;2023-09-18T03:43:58;20.71;118.99
16505;HTU21D;8365;51.030;4.696;2023-09-18T03:46:28;20.68;118.99
16505;HTU21D;8365;51.030;4.696;2023-09-18T03:48:59;20.68;118.99
16505;HTU21D;8365;51.030;4.696;2023-09-18T03:51:29;20.68;118.99
16505;HTU21D;8365;51.030;4.696;2023-09-18T03:53:59;20.66;118.99
16505;HTU21D;8365;51.030;4.696;2023-09-18T03:56:32;20.64;118.99
16505;HTU21D;8365;51.030;4.696;2023-09-18T03:59:03;20.59;118.99
16505;HTU21D;8365;51.030;4.696;2023-09-18T04:01:34;20.42;118.99
16505;HTU21D;8365;51.030;4.696;2023-09-18T04:04:05;20.25;118.99
16505;HTU21D;8365;51.030;4.696;2023-09-18T04:06:45;20.18;118.99
16505;HTU21D;8365;51.030;4.696;2023-09-18T04:09:16;20.15;118.99
16505;HTU21D;8365;51.030;4.696;2023-09-18T04:11:48;20.29;118.99
16505;HTU21D;8365;51.030;4.696;2023-09-18T04:14:18;20.25;118.99
16505;HTU21D;8365;51.030;4.696;2023-09-18T04:16:49;20.19;118.99
16505;HTU21D;8365;51.030;4.696;2023-09-18T04:19:19;20.27;118.99
16505;HTU21D;8365;51.030;4.696;2023-09-18T04:21:50;20.33;118.99
16505;HTU21D;8365;51.030;4.696;2023-09-18T04:24:20;20.36;118.99
16505;HTU21D;8365;51.030;4.696;2023-09-18T04:26:51;20.34;118.99
16505;HTU21D;8365;51.030;4.696;2023-09-18T04:29:21;20.40;118.99
16505;HTU21D;8365;51.030;4.696;2023-09-18T04:31:52;20.43;118.99
16505;HTU21D;8365;51.030;4.696;2023-09-18T04:34:24;20.48;118.99
16505;HTU21D;8365;51.030;4.696;2023-09-18T04:36:56;20.51;118.99
16505;HTU21D;8365;51.030;4.696;2023-09-18T04:39:27;20.53;118.99
16505;HTU21D;8365;51.030;4.696;2023-09-18T04:42:01;20.51;118.99
16505;HTU21D;8365;51.030;4.696;2023-09-18T04:44:34;20.58;118.99
16505;HTU21D;8365;51.030;4.696;2023-09-18T04:47:07;20.48;118.99
16505;HTU21D;8365;51.030;4.696;2023-09-18T04:49:37;20.47;118.99
16505;HTU21D;8365;51.030;4.696;2023-09-18T04:52:10;20.49;118.99
16505;HTU21D;8365;51.030;4.696;2023-09-18T04:54:40;20.39;118.99
16505;HTU21D;8365;51.030;4.696;2023-09-18T04:57:11;20.37;118.99
16505;HTU21D;8365;51.030;4.696;2023-09-18T04:59:41;20.32;118.99
16505;HTU21D;8365;51.030;4.696;2023-09-18T05:02:12;20.27;118.99
16505;HTU21D;8365;51.030;4.696;2023-09-18T05:04:42;20.20;118.99
16505;HTU21D;8365;51.030;4.696;2023-09-18T05:07:15;20.21;118.99
16505;HTU21D;8365;51.030;4.696;2023-09-18T05:09:46;20.18;118.99
16505;HTU21D;8365;51.030;4.696;2023-09-18T05:12:17;20.16;118.99
16505;HTU21D;8365;51.030;4.696;2023-09-18T05:14:47;20.18;118.99
16505;HTU21D;8365;51.030;4.696;2023-09-18T05:17:20;20.10;118.99
16505;HTU21D;8365;51.030;4.696;2023-09-18T05:19:50;20.06;118.99
16505;HTU21D;8365;51.030;4.696;2023-09-18T05:22:21;20.14;118.99
16505;HTU21D;8365;51.030;4.696;2023-09-18T05:24:51;20.03;118.99
16505;HTU21D;8365;51.030;4.696;2023-09-18T05:27:22;20.07;118.99
16505;HTU21D;8365;51.030;4.696;2023-09-18T05:29:55;20.18;118.99
16505;HTU21D;8365;51.030;4.696;2023-09-18T05:32:25;20.15;118.99
16505;HTU21D;8365;51.030;4.696;2023-09-18T05:34:56;20.11;118.99
16505;HTU21D;8365;51.030;4.696;2023-09-18T05:37:26;20.10;118.99
16505;HTU21D;8365;51.030;4.696;2023-09-18T05:39:57;20.07;118.99
16505;HTU21D;8365;51.030;4.696;2023-09-18T05:42:27;20.06;118.99
16505;HTU21D;8365;51.030;4.696;2023-09-18T05:44:57;20.15;118.99
16505;HTU21D;8365;51.030;4.696;2023-09-18T05:47:33;20.10;118.99
16505;HTU21D;8365;51.030;4.696;2023-09-18T05:50:09;20.05;118.99
16505;HTU21D;8365;51.030;4.696;2023-09-18T05:52:46;19.95;118.99
16505;HTU21D;8365;51.030;4.696;2023-09-18T05:55:17;19.99;118.99
16505;HTU21D;8365;51.030;4.696;2023-09-18T05:57:47;19.99;118.99
16505;HTU21D;8365;51.030;4.696;2023-09-18T06:00:18;19.97;118.99
16505;HTU21D;8365;51.030;4.696;2023-09-18T06:02:49;19.89;118.99
16505;HTU21D;8365;51.030;4.696;2023-09-18T06:05:21;19.92;118.99
16505;HTU21D;8365;51.030;4.696;2023-09-18T06:07:51;19.85;118.99
16505;HTU21D;8365;51.030;4.696;2023-09-18T06:10:24;19.83;118.99
16505;HTU21D;8365;51.030;4.696;2023-09-18T06:12:54;19.73;118.99
16505;HTU21D;8365;51.030;4.696;2023-09-18T06:15:25;19.81;118.99
16505;HTU21D;8365;51.030;4.696;2023-09-18T06:17:56;19.81;118.99
16505;HTU21D;8365;51.030;4.696;2023-09-18T06:20:26;19.85;118.99
16505;HTU21D;8365;51.030;4.696;2023-09-18T06:22:56;19.77;118.99
16505;HTU21D;8365;51.030;4.696;2023-09-18T06:25:27;19.79;118.99
16505;HTU21D;8365;51.030;4.696;2023-09-18T06:27:57;19.72;118.99
16505;HTU21D;8365;51.030;4.696;2023-09-18T06:30:29;19.80;118.99
16505;HTU21D;8365;51.030;4.696;2023-09-18T06:33:01;19.88;118.99
16505;HTU21D;8365;51.030;4.696;2023-09-18T06:35:31;19.95;118.99
16505;HTU21D;8365;51.030;4.696;2023-09-18T06:38:02;19.91;118.99
16505;HTU21D;8365;51.030;4.696;2023-09-18T06:40:32;19.77;118.99
16505;HTU21D;8365;51.030;4.696;2023-09-18T06:43:04;19.87;118.99
16505;HTU21D;8365;51.030;4.696;2023-09-18T06:45:35;19.87;118.99
16505;HTU21D;8365;51.030;4.696;2023-09-18T06:48:08;19.83;118.99
16505;HTU21D;8365;51.030;4.696;2023-09-18T06:50:38;19.97;118.99
16505;HTU21D;8365;51.030;4.696;2023-09-18T06:53:09;19.90;118.99
16505;HTU21D;8365;51.030;4.696;2023-09-18T06:55:40;19.98;118.99
16505;HTU21D;8365;51.030;4.696;2023-09-18T06:58:10;20.01;118.99
16505;HTU21D;8365;51.030;4.696;2023-09-18T07:00:41;19.92;118.99
16505;HTU21D;8365;51.030;4.696;2023-09-18T07:03:13;19.80;118.99
16505;HTU21D;8365;51.030;4.696;2023-09-18T07:05:43;19.83;118.99
16505;HTU21D;8365;51.030;4.696;2023-09-18T07:08:14;19.75;118.99
16505;HTU21D;8365;51.030;4.696;2023-09-18T07:10:50;19.82;118.99
16505;HTU21D;8365;51.030;4.696;2023-09-18T07:13:20;19.89;118.99
16505;HTU21D;8365;51.030;4.696;2023-09-18T07:15:53;19.84;118.99
16505;HTU21D;8365;51.030;4.696;2023-09-18T07:18:26;19.88;118.99
16505;HTU21D;8365;51.030;4.696;2023-09-18T07:20:56;19.82;118.99
16505;HTU21D;8365;51.030;4.696;2023-09-18T07:23:29;19.92;118.99
16505;HTU21D;8365;51.030;4.696;2023-09-18T07:26:00;19.79;118.99
16505;HTU21D;8365;51.030;4.696;2023-09-18T07:28:30;19.86;118.99
16505;HTU21D;8365;51.030;4.696;2023-09-18T07:31:07;19.95;118.99
16505;HTU21D;8365;51.030;4.696;2023-09-18T07:33:39;19.85;118.99
16505;HTU21D;8365;51.030;4.696;2023-09-18T07:36:09;19.88;118.99
16505;HTU21D;8365;51.030;4.696;2023-09-18T07:38:45;19.90;118.99
16505;HTU21D;8365;51.030;4.696;2023-09-18T07:41:15;19.86;118.99
16505;HTU21D;8365;51.030;4.696;2023-09-18T07:43:46;20.03;118.99
16505;HTU21D;8365;51.030;4.696;2023-09-18T07:46:16;20.25;118.99
16505;HTU21D;8365;51.030;4.696;2023-09-18T07:48:47;20.53;118.99
16505;HTU21D;8365;51.030;4.696;2023-09-18T07:51:17;20.90;118.99
16505;HTU21D;8365;51.030;4.696;2023-09-18T07:53:48;21.44;118.99
16505;HTU21D;8365;51.030;4.696;2023-09-18T07:56:18;21.64;118.05
16505;HTU21D;8365;51.030;4.696;2023-09-18T07:58:49;21.96;115.87
16505;HTU21D;8365;51.030;4.696;2023-09-18T08:01:19;22.11;113.91
16505;HTU21D;8365;51.030;4.696;2023-09-18T08:03:52;22.61;111.49
16505;HTU21D;8365;51.030;4.696;2023-09-18T08:06:23;22.78;110.24
16505;HTU21D;8365;51.030;4.696;2023-09-18T08:08:54;22.92;108.75
16505;HTU21D;8365;51.030;4.696;2023-09-18T08:11:27;23.26;107.72
16505;HTU21D;8365;51.030;4.696;2023-09-18T08:13:57;23.57;105.37
16505;HTU21D;8365;51.030;4.696;2023-09-18T08:16:27;23.53;105.70
16505;HTU21D;8365;51.030;4.696;2023-09-18T08:19:01;22.88;108.50
16505;HTU21D;8365;51.030;4.696;2023-09-18T08:21:32;22.90;109.04
16505;HTU21D;8365;51.030;4.696;2023-09-18T08:24:02;23.17;107.77
16505;HTU21D;8365;51.030;4.696;2023-09-18T08:26:33;23.55;105.29
16505;HTU21D;8365;51.030;4.696;2023-09-18T08:29:04;23.57;105.40
16505;HTU21D;8365;51.030;4.696;2023-09-18T08:31:34;24.02;103.69
16505;HTU21D;8365;51.030;4.696;2023-09-18T08:34:04;24.49;101.37
16505;HTU21D;8365;51.030;4.696;2023-09-18T08:36:35;24.12;101.02
16505;HTU21D;8365;51.030;4.696;2023-09-18T08:39:06;23.96;102.31
16505;HTU21D;8365;51.030;4.696;2023-09-18T08:41:42;23.79;104.55
16505;HTU21D;8365;51.030;4.696;2023-09-18T08:44:13;23.80;103.00
16505;HTU21D;8365;51.030;4.696;2023-09-18T08:46:45;23.32;105.43
16505;HTU21D;8365;51.030;4.696;2023-09-18T08:49:16;22.84;108.20
16505;HTU21D;8365;51.030;4.696;2023-09-18T08:51:48;22.66;108.88
16505;HTU21D;8365;51.030;4.696;2023-09-18T08:54:19;22.32;110.13
16505;HTU21D;8365;51.030;4.696;2023-09-18T08:56:51;22.38;111.05
16505;HTU21D;8365;51.030;4.696;2023-09-18T08:59:25;22.11;112.39
16505;HTU21D;8365;51.030;4.696;2023-09-18T09:01:55;22.05;113.37
16505;HTU21D;8365;51.030;4.696;2023-09-18T09:04:26;22.08;113.31
16505;HTU21D;8365;51.030;4.696;2023-09-18T09:06:56;22.02;112.74
16505;HTU21D;8365;51.030;4.696;2023-09-18T09:09:29;21.98;113.52
16505;HTU21D;8365;51.030;4.696;2023-09-18T09:12:01;22.02;114.38
16505;HTU21D;8365;51.030;4.696;2023-09-18T09:14:31;21.93;113.12
16505;HTU21D;8365;51.030;4.696;2023-09-18T09:17:02;22.11;113.38
16505;HTU21D;8365;51.030;4.696;2023-09-18T09:19:35;22.65;108.85
16505;HTU21D;8365;51.030;4.696;2023-09-18T09:22:20;22.81;108.30
16505;HTU21D;8365;51.030;4.696;2023-09-18T09:24:50;22.64;109.17
16505;HTU21D;8365;51.030;4.696;2023-09-18T09:27:21;22.44;109.56
16505;HTU21D;8365;51.030;4.696;2023-09-18T09:30:00;22.38;109.83
16505;HTU21D;8365;51.030;4.696;2023-09-18T09:32:32;22.12;110.24
16505;HTU21D;8365;51.030;4.696;2023-09-18T09:35:03;22.44;109.26
16505;HTU21D;8365;51.030;4.696;2023-09-18T09:37:37;22.56;108.55
16505;HTU21D;8365;51.030;4.696;2023-09-18T09:40:12;22.55;108.77
16505;HTU21D;8365;51.030;4.696;2023-09-18T09:42:45;22.28;108.43
16505;HTU21D;8365;51.030;4.696;2023-09-18T09:45:16;22.04;110.92
16505;HTU21D;8365;51.030;4.696;2023-09-18T09:47:46;22.10;109.84
16505;HTU21D;8365;51.030;4.696;2023-09-18T09:50:17;22.12;110.29
16505;HTU21D;8365;51.030;4.696;2023-09-18T09:52:50;22.19;110.94
16505;HTU21D;8365;51.030;4.696;2023-09-18T09:55:31;22.07;111.43
16505;HTU21D;8365;51.030;4.696;2023-09-18T09:58:05;22.17;110.65
16505;HTU21D;8365;51.030;4.696;2023-09-18T10:00:56;22.07;111.30
16505;HTU21D;8365;51.030;4.696;2023-09-18T10:03:32;22.20;111.04
16505;HTU21D;8365;51.030;4.696;2023-09-18T10:06:04;22.16;111.65
16505;HTU21D;8365;51.030;4.696;2023-09-18T10:08:37;22.22;112.13
16505;HTU21D;8365;51.030;4.696;2023-09-18T10:11:13;22.16;112.45
16505;HTU21D;8365;51.030;4.696;2023-09-18T10:13:53;21.99;113.00
16505;HTU21D;8365;51.030;4.696;2023-09-18T10:16:26;22.09;112.40
16505;HTU21D;8365;51.030;4.696;2023-09-18T10:19:09;21.81;113.41
16505;HTU21D;8365;51.030;4.696;2023-09-18T10:21:53;21.73;113.60
16505;HTU21D;8365;51.030;4.696;2023-09-18T10:24:33;21.68;114.22
16505;HTU21D;8365;51.030;4.696;2023-09-18T10:27:05;21.72;113.67
16505;HTU21D;8365;51.030;4.696;2023-09-18T10:29:36;21.83;114.57
16505;HTU21D;8365;51.030;4.696;2023-09-18T10:32:07;21.94;112.87
16505;HTU21D;8365;51.030;4.696;2023-09-18T10:34:38;22.49;109.88
16505;HTU21D;8365;51.030;4.696;2023-09-18T10:37:10;22.33;109.46
16505;HTU21D;8365;51.030;4.696;2023-09-18T10:39:42;22.60;110.00
16505;HTU21D;8365;51.030;4.696;2023-09-18T10:42:16;23.02;107.25
16505;HTU21D;8365;51.030;4.696;2023-09-18T10:44:49;22.84;106.07
16505;HTU21D;8365;51.030;4.696;2023-09-18T10:47:23;22.65;106.94
16505;HTU21D;8365;51.030;4.696;2023-09-18T10:49:54;22.71;106.87
16505;HTU21D;8365;51.030;4.696;2023-09-18T10:52:27;22.80;106.71
16505;HTU21D;8365;51.030;4.696;2023-09-18T10:54:58;23.26;104.69
16505;HTU21D;8365;51.030;4.696;2023-09-18T10:57:33;23.79;100.96
16505;HTU21D;8365;51.030;4.696;2023-09-18T11:00:09;23.96;98.99
16505;HTU21D;8365;51.030;4.696;2023-09-18T11:02:44;24.90;94.44
16505;HTU21D;8365;51.030;4.696;2023-09-18T11:05:28;25.16;94.75
16505;HTU21D;8365;51.030;4.696;2023-09-18T11:11:03;25.54;91.66
16505;HTU21D;8365;51.030;4.696;2023-09-18T11:21:30;25.83;88.26
16505;HTU21D;8365;51.030;4.696;2023-09-18T11:26:37;27.01;84.54
16505;HTU21D;8365;51.030;4.696;2023-09-18T11:29:11;26.87;83.45
16505;HTU21D;8365;51.030;4.696;2023-09-18T11:31:42;27.22;82.59
16505;HTU21D;8365;51.030;4.696;2023-09-18T11:34:36;27.93;80.20
16505;HTU21D;8365;51.030;4.696;2023-09-18T11:37:20;27.24;82.05
16505;HTU21D;8365;51.030;4.696;2023-09-18T11:39:51;28.02;80.36
16505;HTU21D;8365;51.030;4.696;2023-09-18T11:42:22;28.46;76.63
16505;HTU21D;8365;51.030;4.696;2023-09-18T11:44:59;28.63;76.64
16505;HTU21D;8365;51.030;4.696;2023-09-18T11:47:30;28.14;77.19
16505;HTU21D;8365;51.030;4.696;2023-09-18T11:50:02;27.65;77.36
16505;HTU21D;8365;51.030;4.696;2023-09-18T11:52:34;27.39;79.08
16505;HTU21D;8365;51.030;4.696;2023-09-18T11:55:05;26.87;80.31
16505;HTU21D;8365;51.030;4.696;2023-09-18T11:57:37;25.45;84.15
16505;HTU21D;8365;51.030;4.696;2023-09-18T12:00:19;25.51;84.23
16505;HTU21D;8365;51.030;4.696;2023-09-18T12:02:52;26.35;79.98
16505;HTU21D;8365;51.030;4.696;2023-09-18T12:05:23;26.57;77.63
16505;HTU21D;8365;51.030;4.696;2023-09-18T12:07:56;27.08;75.49
16505;HTU21D;8365;51.030;4.696;2023-09-18T12:10:28;27.76;71.84
16505;HTU21D;8365;51.030;4.696;2023-09-18T12:13:00;28.21;71.67
16505;HTU21D;8365;51.030;4.696;2023-09-18T12:15:31;27.58;72.55
16505;HTU21D;8365;51.030;4.696;2023-09-18T12:18:07;28.17;69.97
16505;HTU21D;8365;51.030;4.696;2023-09-18T12:20:45;28.84;68.31
16505;HTU21D;8365;51.030;4.696;2023-09-18T12:23:16;28.67;67.46
16505;HTU21D;8365;51.030;4.696;2023-09-18T12:25:48;29.47;63.81
16505;HTU21D;8365;51.030;4.696;2023-09-18T12:28:19;29.28;63.66
16505;HTU21D;8365;51.030;4.696;2023-09-18T12:30:50;28.82;65.28
16505;HTU21D;8365;51.030;4.696;2023-09-18T12:33:23;29.33;64.30
16505;HTU21D;8365;51.030;4.696;2023-09-18T12:35:54;29.30;62.71
16505;HTU21D;8365;51.030;4.696;2023-09-18T12:38:24;29.31;62.74
16505;HTU21D;8365;51.030;4.696;2023-09-18T12:41:00;28.90;63.68
16505;HTU21D;8365;51.030;4.696;2023-09-18T12:43:40;29.71;62.38
16505;HTU21D;8365;51.030;4.696;2023-09-18T12:46:11;29.81;62.05
16505;HTU21D;8365;51.030;4.696;2023-09-18T12:48:42;30.31;61.06
16505;HTU21D;8365;51.030;4.696;2023-09-18T12:51:16;30.23;59.50
16505;HTU21D;8365;51.030;4.696;2023-09-18T12:54:00;29.63;59.48
16505;HTU21D;8365;51.030;4.696;2023-09-18T12:56:31;30.21;59.28
16505;HTU21D;8365;51.030;4.696;2023-09-18T12:59:06;30.80;56.37
16505;HTU21D;8365;51.030;4.696;2023-09-18T13:01:37;30.77;55.97
16505;HTU21D;8365;51.030;4.696;2023-09-18T13:04:14;30.26;57.46
16505;HTU21D;8365;51.030;4.696;2023-09-18T13:06:44;30.05;57.00
16505;HTU21D;8365;51.030;4.696;2023-09-18T13:09:16;28.77;59.96
16505;HTU21D;8365;51.030;4.696;2023-09-18T13:11:56;30.00;57.79
16505;HTU21D;8365;51.030;4.696;2023-09-18T13:14:27;30.17;56.60
16505;HTU21D;8365;51.030;4.696;2023-09-18T13:17:01;30.12;56.97
16505;HTU21D;8365;51.030;4.696;2023-09-18T13:19:35;30.61;55.27
16505;HTU21D;8365;51.030;4.696;2023-09-18T13:22:05;30.99;54.59
16505;HTU21D;8365;51.030;4.696;2023-09-18T13:24:36;30.51;55.05
16505;HTU21D;8365;51.030;4.696;2023-09-18T13:27:10;30.54;53.91
16505;HTU21D;8365;51.030;4.696;2023-09-18T13:29:41;31.23;52.97
16505;HTU21D;8365;51.030;4.696;2023-09-18T13:32:12;30.66;52.30
16505;HTU21D;8365;51.030;4.696;2023-09-18T13:34:42;30.84;52.22
16505;HTU21D;8365;51.030;4.696;2023-09-18T13:37:15;30.52;52.19
16505;HTU21D;8365;51.030;4.696;2023-09-18T13:39:47;29.32;54.49
16505;HTU21D;8365;51.030;4.696;2023-09-18T13:42:18;28.98;57.12
16505;HTU21D;8365;51.030;4.696;2023-09-18T13:44:48;28.27;60.12
16505;HTU21D;8365;51.030;4.696;2023-09-18T13:47:20;28.57;60.18
16505;HTU21D;8365;51.030;4.696;2023-09-18T13:49:50;27.85;61.41
16505;HTU21D;8365;51.030;4.696;2023-09-18T13:52:22;28.26;60.02
16505;HTU21D;8365;51.030;4.696;2023-09-18T13:54:53;28.88;56.99
16505;HTU21D;8365;51.030;4.696;2023-09-18T13:57:24;29.15;57.16
16505;HTU21D;8365;51.030;4.696;2023-09-18T13:59:54;28.55;58.11
16505;HTU21D;8365;51.030;4.696;2023-09-18T14:02:25;28.62;57.71
16505;HTU21D;8365;51.030;4.696;2023-09-18T14:04:57;27.76;59.45
16505;HTU21D;8365;51.030;4.696;2023-09-18T14:07:28;26.90;60.58
16505;HTU21D;8365;51.030;4.696;2023-09-18T14:10:00;26.46;60.31
16505;HTU21D;8365;51.030;4.696;2023-09-18T14:12:34;26.02;61.02
16505;HTU21D;8365;51.030;4.696;2023-09-18T14:15:07;25.73;63.29
16505;HTU21D;8365;51.030;4.696;2023-09-18T14:17:40;25.66;64.14
16505;HTU21D;8365;51.030;4.696;2023-09-18T14:20:11;25.50;65.26
16505;HTU21D;8365;51.030;4.696;2023-09-18T14:22:42;25.32;66.66
16505;HTU21D;8365;51.030;4.696;2023-09-18T14:25:12;25.67;66.40
16505;HTU21D;8365;51.030;4.696;2023-09-18T14:27:43;25.50;66.71
16505;HTU21D;8365;51.030;4.696;2023-09-18T14:30:14;25.27;66.32
16505;HTU21D;8365;51.030;4.696;2023-09-18T14:32:46;25.16;67.09
16505;HTU21D;8365;51.030;4.696;2023-09-18T14:35:17;25.38;66.57
16505;HTU21D;8365;51.030;4.696;2023-09-18T14:37:47;25.38;66.14
16505;HTU21D;8365;51.030;4.696;2023-09-18T14:40:18;25.35;67.63
16505;HTU21D;8365;51.030;4.696;2023-09-18T14:42:51;24.91;67.87
16505;HTU21D;8365;51.030;4.696;2023-09-18T14:45:21;24.82;68.77
16505;HTU21D;8365;51.030;4.696;2023-09-18T14:47:52;24.64;69.33
16505;HTU21D;8365;51.030;4.696;2023-09-18T14:50:22;24.56;70.50
16505;HTU21D;8365;51.030;4.696;2023-09-18T14:52:55;24.33;71.43
16505;HTU21D;8365;51.030;4.696;2023-09-18T14:55:28;24.28;72.63
16505;HTU21D;8365;51.030;4.696;2023-09-18T14:57:58;24.21;74.20
16505;HTU21D;8365;51.030;4.696;2023-09-18T15:00:32;23.96;82.84
16505;HTU21D;8365;51.030;4.696;2023-09-18T15:03:04;20.34;118.99
16505;HTU21D;8365;51.030;4.696;2023-09-18T15:05:37;19.38;118.99
16505;HTU21D;8365;51.030;4.696;2023-09-18T15:08:08;19.26;118.99
16505;HTU21D;8365;51.030;4.696;2023-09-18T15:10:38;19.24;118.99
16505;HTU21D;8365;51.030;4.696;2023-09-18T15:13:09;19.20;118.99
16505;HTU21D;8365;51.030;4.696;2023-09-18T15:15:40;19.21;118.99
16505;HTU21D;8365;51.030;4.696;2023-09-18T15:18:11;19.29;118.99
16505;HTU21D;8365;51.030;4.696;2023-09-18T15:20:41;19.39;118.99
16505;HTU21D;8365;51.030;4.696;2023-09-18T15:23:12;19.51;118.99
16505;HTU21D;8365;51.030;4.696;2023-09-18T15:25:42;20.35;118.99
16505;HTU21D;8365;51.030;4.696;2023-09-18T15:28:13;21.32;118.99
16505;HTU21D;8365;51.030;4.696;2023-09-18T15:30:44;21.99;118.99
16505;HTU21D;8365;51.030;4.696;2023-09-18T15:33:15;22.63;118.99
16505;HTU21D;8365;51.030;4.696;2023-09-18T15:35:50;23.22;118.99
16505;HTU21D;8365;51.030;4.696;2023-09-18T15:38:21;23.85;117.11
16505;HTU21D;8365;51.030;4.696;2023-09-18T15:40:51;23.74;111.91
16505;HTU21D;8365;51.030;4.696;2023-09-18T15:43:22;24.33;111.96
16505;HTU21D;8365;51.030;4.696;2023-09-18T15:45:54;24.49;110.26
16505;HTU21D;8365;51.030;4.696;2023-09-18T15:48:27;24.41;108.75
16505;HTU21D;8365;51.030;4.696;2023-09-18T15:50:58;23.82;108.49
16505;HTU21D;8365;51.030;4.696;2023-09-18T15:53:29;23.27;113.00
16505;HTU21D;8365;51.030;4.696;2023-09-18T15:55:59;22.50;114.18
16505;HTU21D;8365;51.030;4.696;2023-09-18T15:58:30;22.42;117.91
16505;HTU21D;8365;51.030;4.696;2023-09-18T16:01:02;22.50;115.52
16505;HTU21D;8365;51.030;4.696;2023-09-18T16:03:34;22.32;113.42